Time;durP1;ratioP1;P1;durP2;ratioP2;P2;SDS_P1;SDS_P2;PMS_P1;PMS_P2;Temp;Humidity;BMP_temperature;BMP_pressure;BME280_temperature;BME280_humidity;BME280_pressure;Samples;Min_cycle;Max_cycle;Signal;HPM_P1;HPM_P2
2022/12/06 00:01:37;;;;;;;8.50;6.90;;;6.30;1.00;;;;;;5116862;28;20703;-42
2022/12/06 00:04:08;;;;;;;7.93;7.13;;;6.30;1.00;;;;;;5118357;27;20164;-45
2022/12/06 00:06:37;;;;;;;7.53;6.83;;;6.20;1.00;;;;;;5118243;28;20720;-42
2022/12/06 00:09:03;;;;;;;8.43;6.93;;;6.20;1.00;;;;;;5118556;28;20504;-44
2022/12/06 00:11:31;;;;;;;8.00;7.20;;;6.20;1.00;;;;;;5118329;28;20552;-44
2022/12/06 00:13:59;;;;;;;7.70;6.57;;;6.20;1.00;;;;;;5084142;28;20425;-42
2022/12/06 00:16:25;;;;;;;7.50;5.57;;;6.20;1.00;;;;;;5121018;28;20425;-43
2022/12/06 00:18:51;;;;;;;7.60;6.90;;;6.20;1.00;;;;;;5120956;28;20468;-42
2022/12/06 00:21:20;;;;;;;6.27;5.67;;;6.20;1.00;;;;;;5120122;28;20944;-43
2022/12/06 00:23:48;;;;;;;7.33;6.20;;;6.20;99.90;;;;;;5120315;28;20421;-42
2022/12/06 00:26:14;;;;;;;6.87;5.97;;;6.20;99.90;;;;;;5120463;28;20467;-41
2022/12/06 00:28:40;;;;;;;6.47;5.87;;;6.20;99.90;;;;;;5120493;28;20425;-45
2022/12/06 00:31:08;;;;;;;7.53;6.37;;;6.20;99.90;;;;;;5119469;28;20593;-42
2022/12/06 00:33:35;;;;;;;7.00;6.30;;;6.10;99.90;;;;;;5120238;28;20462;-44
2022/12/06 00:36:06;;;;;;;6.57;5.90;;;6.20;99.90;;;;;;5120135;28;20443;-43
2022/12/06 00:38:33;;;;;;;5.93;5.40;;;6.10;99.90;;;;;;5119973;28;20426;-42
2022/12/06 00:41:00;;;;;;;5.80;5.30;;;6.10;99.90;;;;;;5119721;28;20432;-42
2022/12/06 00:43:26;;;;;;;6.10;5.60;;;6.10;99.90;;;;;;5120598;28;21017;-44
2022/12/06 00:45:52;;;;;;;5.60;5.00;;;6.10;99.90;;;;;;5119804;28;20475;-43
2022/12/06 00:48:18;;;;;;;6.03;4.97;;;6.10;99.90;;;;;;5119948;28;20528;-43
2022/12/06 00:50:43;;;;;;;7.13;5.57;;;6.10;99.90;;;;;;5119696;28;20643;-44
2022/12/06 00:53:09;;;;;;;5.23;4.73;;;6.10;99.90;;;;;;5120427;28;20413;-44
2022/12/06 00:55:34;;;;;;;5.90;5.30;;;6.10;99.90;;;;;;5119708;28;20180;-42
2022/12/06 00:58:00;;;;;;;5.80;5.30;;;6.10;99.90;;;;;;5122316;28;20180;-42
2022/12/06 01:00:26;;;;;;;5.83;5.23;;;6.10;99.90;;;;;;5122234;28;20182;-42
2022/12/06 01:02:52;;;;;;;4.70;4.30;;;6.00;99.90;;;;;;5121443;28;20179;-42
2022/12/06 01:05:17;;;;;;;5.20;4.70;;;6.00;99.90;;;;;;5121564;28;20609;-42
2022/12/06 01:07:43;;;;;;;6.30;5.70;;;6.00;99.90;;;;;;5120982;28;20328;-43
2022/12/06 01:10:09;;;;;;;5.80;5.20;;;6.00;99.90;;;;;;5120978;28;20183;-44
2022/12/06 01:12:35;;;;;;;5.70;5.03;;;6.00;99.90;;;;;;5120229;28;20469;-43
2022/12/06 01:15:01;;;;;;;5.90;5.30;;;6.00;94.90;;;;;;5119608;28;20478;-44
2022/12/06 01:17:26;;;;;;;4.93;4.53;;;5.90;77.70;;;;;;5119761;28;20193;-44
2022/12/06 01:19:52;;;;;;;5.50;5.00;;;5.90;63.60;;;;;;5120526;28;20172;-43
2022/12/06 01:22:17;;;;;;;5.90;5.30;;;5.90;44.10;;;;;;5119810;28;20179;-43
2022/12/06 01:24:43;;;;;;;5.43;4.87;;;5.90;19.90;;;;;;5120423;28;20171;-43
2022/12/06 01:27:09;;;;;;;4.57;4.13;;;5.90;7.00;;;;;;5119447;28;20658;-42
2022/12/06 01:29:35;;;;;;;4.97;4.23;;;5.80;5.00;;;;;;5120177;28;20172;-44
2022/12/06 01:32:00;;;;;;;5.27;4.77;;;5.80;4.70;;;;;;5119384;28;20202;-43
2022/12/06 01:34:26;;;;;;;5.57;5.00;;;5.80;9.30;;;;;;5119306;28;20816;-43
2022/12/06 01:36:51;;;;;;;6.17;5.00;;;5.80;5.60;;;;;;5119821;28;20175;-44
2022/12/06 01:39:17;;;;;;;5.60;5.00;;;5.70;11.70;;;;;;5120112;28;20175;-42
2022/12/06 01:41:43;;;;;;;5.60;5.00;;;5.70;8.00;;;;;;5119915;28;20172;-43
2022/12/06 01:44:45;;;;;;;5.40;4.90;;;5.70;12.30;;;;;;5119095;28;20189;-43
2022/12/06 01:47:34;;;;;;;5.53;4.53;;;5.70;14.90;;;;;;5118510;28;20207;-42
2022/12/06 01:50:18;;;;;;;5.27;4.77;;;5.70;15.40;;;;;;5118791;28;20414;-42
2022/12/06 01:52:52;;;;;;;5.40;4.90;;;5.70;34.50;;;;;;5119314;28;20490;-42
2022/12/06 01:55:22;;;;;;;5.20;4.63;;;5.70;53.00;;;;;;5118969;28;20431;-41
2022/12/06 01:57:50;;;;;;;5.50;5.00;;;5.70;54.30;;;;;;5101198;28;20418;-43
2022/12/06 02:00:16;;;;;;;5.83;5.10;;;5.70;53.10;;;;;;5119450;28;20417;-43
2022/12/06 02:02:42;;;;;;;6.53;5.93;;;5.70;45.80;;;;;;5119285;28;20716;-44
2022/12/06 02:05:08;;;;;;;6.40;5.80;;;5.70;55.30;;;;;;5100786;28;20425;-43
2022/12/06 02:07:33;;;;;;;6.40;5.80;;;5.70;73.10;;;;;;5100847;28;20507;-42
2022/12/06 02:10:00;;;;;;;6.40;5.80;;;5.70;82.30;;;;;;5118738;28;20183;-42
2022/12/06 02:12:26;;;;;;;6.80;6.10;;;5.70;80.80;;;;;;5117349;28;20227;-42
2022/12/06 02:14:53;;;;;;;6.00;5.50;;;5.70;55.10;;;;;;5118623;28;20416;-43
2022/12/06 02:17:55;;;;;;;7.53;6.37;;;5.70;79.20;;;;;;5118801;28;20184;-42
2022/12/06 02:20:38;;;;;;;6.70;6.00;;;5.70;99.70;;;;;;5113831;28;20519;-42
2022/12/06 02:23:41;;;;;;;6.30;5.70;;;5.70;99.90;;;;;;5100798;28;20434;-43
2022/12/06 02:26:32;;;;;;;6.00;5.40;;;5.70;99.90;;;;;;5118565;28;20540;-42
2022/12/06 02:29:36;;;;;;;7.20;5.40;;;5.70;99.90;;;;;;5100889;28;20437;-41
2022/12/06 02:32:13;;;;;;;6.10;5.57;;;5.70;99.90;;;;;;5062760;28;20912;-41
2022/12/06 02:34:43;;;;;;;6.43;5.80;;;5.70;99.90;;;;;;5100230;28;20484;-42
2022/12/06 02:37:13;;;;;;;5.73;5.23;;;5.70;99.90;;;;;;5100762;28;20449;-41
2022/12/06 02:39:49;;;;;;;6.40;5.83;;;5.80;99.90;;;;;;5100593;28;20687;-41
2022/12/06 02:42:25;;;;;;;6.50;5.57;;;5.80;99.90;;;;;;5100396;28;20483;-41
2022/12/06 02:44:53;;;;;;;6.43;5.77;;;5.80;99.90;;;;;;5118063;28;20462;-42
2022/12/06 02:47:23;;;;;;;6.83;6.23;;;5.80;99.90;;;;;;5083514;28;20762;-41
2022/12/06 02:49:49;;;;;;;5.93;5.43;;;5.80;99.90;;;;;;5118171;28;20471;-42
2022/12/06 02:52:17;;;;;;;6.97;6.27;;;5.70;92.50;;;;;;5099911;28;20536;-45
2022/12/06 02:54:45;;;;;;;6.07;5.40;;;5.70;90.90;;;;;;5100032;28;20417;-41
2022/12/06 02:57:10;;;;;;;6.50;5.53;;;5.70;80.20;;;;;;5100530;28;20827;-41
2022/12/06 02:59:36;;;;;;;6.47;5.77;;;5.70;83.10;;;;;;5121302;28;20428;-43
2022/12/06 03:02:04;;;;;;;6.67;5.97;;;5.80;83.60;;;;;;5121798;28;20466;-41
2022/12/06 03:05:04;;;;;;;5.93;5.43;;;5.70;91.40;;;;;;5121944;28;20175;-42
2022/12/06 03:07:30;;;;;;;7.30;6.40;;;5.70;57.10;;;;;;5121457;28;20529;-42
2022/12/06 03:10:14;;;;;;;6.80;6.10;;;5.70;38.60;;;;;;5122033;28;20744;-42
2022/12/06 03:12:48;;;;;;;5.77;5.17;;;5.70;50.30;;;;;;5120441;28;20220;-41
2022/12/06 03:15:36;;;;;;;5.70;5.07;;;5.70;51.50;;;;;;5122772;28;20405;-42
2022/12/06 03:18:17;;;;;;;6.73;6.03;;;5.70;84.00;;;;;;5119963;28;20440;-43
2022/12/06 03:21:02;;;;;;;6.00;5.40;;;5.80;99.90;;;;;;5119036;28;20503;-41
2022/12/06 03:23:37;;;;;;;7.30;5.40;;;5.80;99.90;;;;;;5120642;28;20432;-42
2022/12/06 03:26:04;;;;;;;5.97;5.37;;;5.80;99.90;;;;;;5120920;28;20456;-41
2022/12/06 03:28:30;;;;;;;6.00;5.40;;;5.80;99.90;;;;;;5119234;28;20429;-44
2022/12/06 03:31:02;;;;;;;6.83;5.10;;;5.80;99.90;;;;;;5118984;28;20404;-43
2022/12/06 03:33:29;;;;;;;5.77;5.27;;;5.80;99.90;;;;;;5120551;28;20409;-43
2022/12/06 03:35:55;;;;;;;6.13;5.40;;;5.80;99.90;;;;;;5120670;28;20405;-42
2022/12/06 03:38:26;;;;;;;6.87;5.93;;;5.80;99.90;;;;;;5119292;28;20532;-44
2022/12/06 03:40:52;;;;;;;5.93;5.33;;;5.80;99.90;;;;;;5119995;28;20424;-42
2022/12/06 03:43:18;;;;;;;6.90;5.80;;;5.80;99.90;;;;;;5119470;28;20536;-43
2022/12/06 03:46:14;;;;;;;6.20;5.50;;;5.80;99.90;;;;;;5119561;28;20548;-43
2022/12/06 03:48:53;;;;;;;6.97;6.27;;;5.80;99.90;;;;;;5099496;28;20521;-45
2022/12/06 03:51:28;;;;;;;5.13;4.70;;;5.80;99.90;;;;;;5119819;28;20492;-43
2022/12/06 03:53:56;;;;;;;5.73;4.80;;;5.80;99.90;;;;;;5119494;28;20421;-42
2022/12/06 03:56:22;;;;;;;5.20;4.70;;;5.80;99.90;;;;;;5119085;28;20464;-42
2022/12/06 03:58:48;;;;;;;6.13;5.53;;;5.80;99.90;;;;;;5119402;28;20465;-41
2022/12/06 04:01:14;;;;;;;6.37;5.73;;;5.80;99.90;;;;;;5119959;28;20424;-41
2022/12/06 04:03:40;;;;;;;6.03;5.43;;;5.80;99.90;;;;;;5119587;28;20425;-42
2022/12/06 04:06:07;;;;;;;5.30;4.87;;;5.80;99.90;;;;;;5119721;28;20738;-44
2022/12/06 04:08:33;;;;;;;6.00;5.33;;;5.80;99.90;;;;;;5119605;27;20186;-43
2022/12/06 04:10:59;;;;;;;6.73;6.10;;;5.80;99.90;;;;;;5118081;28;20472;-44
2022/12/06 04:13:25;;;;;;;5.57;5.07;;;5.70;99.90;;;;;;5100435;28;20426;-43
2022/12/06 04:15:54;;;;;;;6.67;6.07;;;5.70;99.90;;;;;;5118333;28;20176;-42
2022/12/06 04:18:20;;;;;;;7.17;6.47;;;5.70;99.90;;;;;;5120147;28;20715;-41
2022/12/06 04:23:37;;;;;;;6.90;6.20;;;5.70;99.90;;;;;;5120430;28;20512;-41
2022/12/06 04:26:04;;;;;;;5.87;5.10;;;5.70;99.90;;;;;;5121413;28;20461;-42
2022/12/06 04:39:27;;;;;;;6.20;5.63;;;5.60;99.90;;;;;;5117763;28;20413;-43
2022/12/06 04:44:37;;;;;;;8.00;7.23;;;5.60;99.90;;;;;;5118032;28;20458;-44
2022/12/06 04:47:04;;;;;;;8.80;7.90;;;5.60;99.90;;;;;;5117454;28;20472;-44
2022/12/06 04:49:29;;;;;;;8.53;7.73;;;5.60;99.90;;;;;;5117790;28;20501;-43
2022/12/06 04:51:55;;;;;;;8.00;7.20;;;5.60;99.90;;;;;;5118984;28;20748;-43
2022/12/06 04:54:22;;;;;;;8.23;7.43;;;5.60;99.90;;;;;;5118454;28;20504;-43
2022/12/06 04:56:47;;;;;;;6.30;5.70;;;5.60;99.90;;;;;;5118457;28;20187;-42
2022/12/06 04:59:13;;;;;;;6.83;5.97;;;5.60;99.90;;;;;;5118141;28;20402;-44
2022/12/06 05:01:38;;;;;;;6.73;6.03;;;5.60;99.90;;;;;;5118356;28;20179;-43
2022/12/06 05:04:04;;;;;;;6.20;5.60;;;5.60;99.90;;;;;;5119077;28;20178;-43
2022/12/06 05:06:30;;;;;;;6.87;6.17;;;5.60;99.90;;;;;;5116564;28;20240;-42
2022/12/06 05:08:55;;;;;;;6.73;6.07;;;5.60;99.90;;;;;;5116917;28;20236;-44
2022/12/06 05:11:21;;;;;;;6.37;5.37;;;5.60;99.90;;;;;;5116382;28;20355;-46
2022/12/06 05:13:46;;;;;;;5.70;5.20;;;5.60;99.90;;;;;;5115339;28;20312;-43
2022/12/06 05:16:12;;;;;;;6.37;5.77;;;5.60;99.90;;;;;;5113583;28;20168;-44
2022/12/06 05:18:38;;;;;;;6.17;5.57;;;5.60;99.90;;;;;;5114754;28;20202;-41
2022/12/06 05:21:16;;;;;;;7.33;6.63;;;5.60;99.90;;;;;;5113331;28;20418;-41
2022/12/06 05:23:41;;;;;;;6.30;5.70;;;5.60;99.90;;;;;;5114312;28;20179;-42
2022/12/06 05:26:10;;;;;;;6.60;5.73;;;5.60;99.90;;;;;;5114453;28;20457;-42
2022/12/06 05:28:36;;;;;;;5.13;4.63;;;5.60;99.90;;;;;;5115665;28;20244;-42
2022/12/06 05:31:01;;;;;;;5.77;5.17;;;5.60;99.90;;;;;;5116733;28;20409;-42
2022/12/06 05:33:27;;;;;;;6.50;5.90;;;5.60;99.90;;;;;;5115323;28;20184;-45
2022/12/06 05:35:53;;;;;;;5.57;5.07;;;5.60;95.20;;;;;;5096781;28;20229;-43
2022/12/06 05:38:19;;;;;;;7.17;6.37;;;5.60;57.20;;;;;;5097503;28;20466;-41
2022/12/06 05:40:45;;;;;;;6.87;5.80;;;5.60;41.40;;;;;;5096904;28;20463;-42
2022/12/06 05:43:11;;;;;;;6.37;5.73;;;5.60;37.10;;;;;;5094971;28;20711;-43
2022/12/06 05:45:38;;;;;;;5.90;5.30;;;5.60;40.10;;;;;;5094140;28;20553;-43
2022/12/06 05:48:04;;;;;;;6.97;6.27;;;5.50;56.30;;;;;;5091874;28;20433;-43
2022/12/06 05:50:30;;;;;;;7.20;5.60;;;5.60;56.30;;;;;;5092269;28;20511;-41
2022/12/06 05:52:57;;;;;;;6.23;5.63;;;5.50;42.00;;;;;;5091541;28;20422;-42
2022/12/06 05:55:23;;;;;;;7.00;6.30;;;5.50;38.70;;;;;;5091884;28;20499;-44
2022/12/06 05:57:49;;;;;;;7.67;6.40;;;5.50;28.40;;;;;;5090324;28;20437;-44
2022/12/06 06:00:16;;;;;;;6.50;5.70;;;5.60;1.60;;;;;;5093049;28;20433;-43
2022/12/06 06:02:42;;;;;;;7.60;6.90;;;5.60;1.00;;;;;;5090049;28;20422;-43
2022/12/06 06:05:15;;;;;;;7.23;6.50;;;5.50;1.00;;;;;;5091851;28;20462;-42
2022/12/06 06:07:40;;;;;;;6.60;5.87;;;5.60;1.00;;;;;;5092446;28;20463;-42
2022/12/06 06:10:06;;;;;;;6.67;5.93;;;5.60;1.00;;;;;;5075472;28;20663;-42
2022/12/06 06:12:32;;;;;;;6.63;5.97;;;5.60;1.00;;;;;;5091506;28;20239;-41
2022/12/06 06:14:58;;;;;;;5.57;5.07;;;5.60;1.00;;;;;;5093982;28;20855;-42
2022/12/06 06:17:24;;;;;;;6.77;6.10;;;5.60;1.00;;;;;;5105211;28;20452;-41
2022/12/06 06:19:50;;;;;;;6.77;5.97;;;5.50;1.00;;;;;;5099371;28;20257;-41
2022/12/06 06:22:17;;;;;;;5.93;5.33;;;5.60;1.00;;;;;;5091182;28;20275;-43
2022/12/06 06:24:43;;;;;;;5.60;4.77;;;5.60;1.00;;;;;;5090070;28;20417;-43
2022/12/06 06:27:09;;;;;;;6.50;5.90;;;5.60;1.00;;;;;;5087332;28;20618;-43
2022/12/06 06:29:34;;;;;;;6.43;5.83;;;5.60;1.00;;;;;;5083396;28;20277;-41
2022/12/06 06:32:00;;;;;;;6.13;5.53;;;5.60;1.00;;;;;;5085686;28;20180;-42
2022/12/06 06:34:26;;;;;;;6.50;5.60;;;5.60;1.00;;;;;;5086299;28;20177;-41
2022/12/06 06:36:51;;;;;;;6.13;5.50;;;5.60;1.00;;;;;;5091480;28;20223;-41
2022/12/06 06:39:17;;;;;;;6.60;6.00;;;5.60;1.00;;;;;;5091519;28;20432;-42
2022/12/06 06:41:46;;;;;;;6.67;5.97;;;5.60;1.00;;;;;;5088151;28;20172;-43
2022/12/06 06:44:12;;;;;;;6.23;5.07;;;5.60;1.00;;;;;;5086830;28;20176;-42
2022/12/06 06:46:38;;;;;;;5.40;4.90;;;5.60;1.00;;;;;;5087745;28;20690;-41
2022/12/06 06:49:04;;;;;;;6.47;5.83;;;5.60;1.00;;;;;;5088072;28;20196;-42
2022/12/06 06:51:31;;;;;;;5.73;4.93;;;5.60;1.00;;;;;;5088940;28;20767;-41
2022/12/06 06:53:56;;;;;;;6.50;5.80;;;5.60;1.00;;;;;;5089771;28;20519;-41
2022/12/06 06:56:22;;;;;;;6.10;5.50;;;5.60;1.00;;;;;;5088016;28;20529;-42
2022/12/06 06:58:48;;;;;;;6.40;5.80;;;5.60;1.00;;;;;;5088047;28;20766;-40
2022/12/06 07:01:19;;;;;;;7.73;6.43;;;5.60;1.00;;;;;;5087774;28;20183;-41
2022/12/06 07:03:45;;;;;;;6.87;5.40;;;5.60;1.00;;;;;;5087420;28;20179;-41
2022/12/06 07:06:11;;;;;;;5.83;5.20;;;5.60;1.00;;;;;;5088496;28;20877;-43
2022/12/06 07:08:38;;;;;;;6.90;5.90;;;5.70;1.00;;;;;;5089817;28;20495;-41
2022/12/06 07:11:05;;;;;;;6.73;5.97;;;5.70;1.00;;;;;;5091057;28;20567;-42
2022/12/06 07:13:31;;;;;;;6.00;5.40;;;5.60;1.00;;;;;;5073864;28;20503;-41
2022/12/06 07:15:58;;;;;;;6.70;6.03;;;5.60;1.00;;;;;;5091115;28;20433;-42
2022/12/06 07:18:24;;;;;;;7.17;6.20;;;5.70;1.00;;;;;;5057730;28;20445;-42
2022/12/06 07:20:57;;;;;;;6.70;6.10;;;5.70;1.00;;;;;;5093570;28;20468;-42
2022/12/06 07:23:23;;;;;;;6.40;5.80;;;5.70;99.90;;;;;;5073257;28;20826;-40
2022/12/06 07:26:05;;;;;;;7.93;7.13;;;5.70;99.90;;;;;;5090165;28;20789;-41
2022/12/06 07:28:33;;;;;;;7.57;6.80;;;5.70;99.90;;;;;;5090068;28;20207;-42
2022/12/06 07:31:25;;;;;;;8.13;6.50;;;5.70;99.90;;;;;;5087899;28;20399;-42
2022/12/06 07:33:52;;;;;;;7.30;6.60;;;5.70;99.90;;;;;;5070624;28;20422;-41
2022/12/06 07:36:18;;;;;;;7.00;6.20;;;5.70;99.90;;;;;;5090962;28;20450;-41
2022/12/06 07:38:48;;;;;;;6.83;6.23;;;5.70;99.90;;;;;;5091802;28;20442;-41
2022/12/06 07:46:44;;;;;;;6.40;5.80;;;5.70;99.90;;;;;;5095037;28;20622;-42
2022/12/06 07:49:10;;;;;;;6.30;5.67;;;5.70;99.90;;;;;;5095454;28;20476;-42
2022/12/06 07:51:36;;;;;;;5.70;5.10;;;5.80;99.90;;;;;;5078332;28;20454;-40
2022/12/06 07:54:02;;;;;;;6.53;5.93;;;5.80;99.90;;;;;;5075225;28;20176;-44
2022/12/06 07:56:28;;;;;;;8.00;6.40;;;5.80;99.90;;;;;;5095512;28;20446;-43
2022/12/06 07:58:54;;;;;;;6.30;5.60;;;5.80;99.90;;;;;;5097813;28;20468;-41
2022/12/06 08:01:19;;;;;;;6.40;5.70;;;5.80;99.90;;;;;;5097428;28;20275;-44
2022/12/06 08:03:45;;;;;;;6.97;6.37;;;5.90;99.90;;;;;;5095975;28;20690;-42
2022/12/06 08:06:11;;;;;;;6.40;5.80;;;5.90;99.90;;;;;;5097959;28;20250;-41
2022/12/06 08:08:37;;;;;;;6.70;6.00;;;5.90;99.90;;;;;;5099416;28;20187;-41
2022/12/06 08:11:07;;;;;;;6.10;5.50;;;5.90;99.90;;;;;;5097249;28;20488;-41
2022/12/06 08:13:33;;;;;;;7.07;6.13;;;5.90;99.90;;;;;;5095469;28;20192;-42
2022/12/06 08:15:59;;;;;;;8.00;6.30;;;6.00;99.90;;;;;;5078657;28;20509;-42
2022/12/06 08:18:25;;;;;;;8.37;5.53;;;6.00;99.90;;;;;;5076616;28;20811;-41
2022/12/06 08:20:52;;;;;;;8.00;7.00;;;6.00;99.90;;;;;;5095667;28;20172;-41
2022/12/06 08:23:18;;;;;;;14.20;7.67;;;6.00;99.90;;;;;;5095943;28;20218;-41
2022/12/06 08:25:43;;;;;;;8.17;6.70;;;6.00;75.90;;;;;;5095061;28;20410;-43
2022/12/06 08:28:09;;;;;;;8.00;6.50;;;6.00;52.40;;;;;;5095353;28;20511;-41
2022/12/06 08:30:38;;;;;;;9.73;7.00;;;6.00;37.00;;;;;;5096815;28;20168;-42
2022/12/06 08:33:04;;;;;;;9.00;6.73;;;6.10;16.80;;;;;;5095396;28;20212;-42
2022/12/06 08:35:30;;;;;;;8.27;7.50;;;6.10;15.70;;;;;;5094245;28;20453;-43
2022/12/06 08:37:55;;;;;;;7.00;5.87;;;6.10;19.40;;;;;;5095648;28;20177;-43
2022/12/06 08:40:21;;;;;;;7.77;6.30;;;6.10;20.30;;;;;;5094397;28;20397;-42
2022/12/06 08:42:46;;;;;;;7.40;6.47;;;6.10;22.60;;;;;;5090989;28;20267;-45
2022/12/06 08:45:12;;;;;;;7.47;6.30;;;6.20;13.50;;;;;;5093749;28;20260;-42
2022/12/06 08:47:38;;;;;;;9.00;7.37;;;6.20;16.50;;;;;;5075563;28;20212;-42
2022/12/06 08:50:04;;;;;;;7.53;6.40;;;6.30;7.80;;;;;;5095855;28;20200;-42
2022/12/06 08:52:29;;;;;;;8.03;6.97;;;6.30;5.30;;;;;;5095733;28;20188;-42
2022/12/06 08:54:55;;;;;;;8.00;6.67;;;6.30;2.80;;;;;;5098299;28;20421;-43
2022/12/06 08:57:21;;;;;;;7.40;6.53;;;6.30;1.00;;;;;;5098311;28;20181;-41
2022/12/06 08:59:46;;;;;;;8.63;6.37;;;6.30;1.00;;;;;;5098225;28;20207;-42
2022/12/06 09:02:12;;;;;;;7.43;6.47;;;6.40;1.00;;;;;;5097834;28;20552;-42
2022/12/06 09:04:38;;;;;;;8.93;6.83;;;6.40;1.00;;;;;;5079896;28;20431;-43
2022/12/06 09:07:04;;;;;;;7.43;6.63;;;6.50;1.00;;;;;;5096672;28;20565;-42
2022/12/06 09:09:29;;;;;;;3.43;2.37;;;6.60;1.00;;;;;;5097683;28;20198;-46
2022/12/06 09:11:55;;;;;;;4.67;3.63;;;7.80;1.00;;;;;;5097460;28;20281;-46
2022/12/06 09:14:21;;;;;;;4.67;4.23;;;9.00;1.00;;;;;;5097547;28;20176;-46
2022/12/06 09:16:47;;;;;;;4.07;3.67;;;9.90;1.00;;;;;;5096589;28;20196;-47
2022/12/06 09:19:13;;;;;;;4.63;3.83;;;10.50;1.00;;;;;;5097244;28;20425;-46
2022/12/06 09:21:41;;;;;;;4.50;4.07;;;11.00;1.00;;;;;;5098027;28;20426;-47
2022/12/06 09:24:13;;;;;;;4.07;3.67;;;11.60;99.90;;;;;;5096394;28;20869;-46
2022/12/06 09:26:38;;;;;;;4.40;3.80;;;12.20;99.90;;;;;;5096176;28;20463;-47
2022/12/06 09:29:04;;;;;;;4.90;3.20;;;12.80;1.00;;;;;;5096897;28;20407;-47
2022/12/06 09:31:30;;;;;;;4.03;3.63;;;13.20;99.90;;;;;;5096605;28;20184;-43
2022/12/06 09:33:56;;;;;;;6.13;4.67;;;13.70;99.90;;;;;;5097417;28;20266;-43
2022/12/06 09:36:26;;;;;;;6.73;6.03;;;13.60;99.90;;;;;;5097532;28;20469;-43
2022/12/06 09:38:55;;;;;;;6.93;6.07;;;13.20;1.00;;;;;;5079420;28;20188;-41
2022/12/06 09:41:50;;;;;;;5.80;5.20;;;12.70;99.90;;;;;;5097497;28;20457;-41
2022/12/06 09:44:30;;;;;;;6.40;5.80;;;12.10;1.00;;;;;;5097189;28;20441;-41
2022/12/06 09:46:59;;;;;;;7.43;6.67;;;11.60;1.00;;;;;;5096381;28;20535;-42
2022/12/06 09:49:31;;;;;;;6.40;5.80;;;11.20;1.00;;;;;;5095667;28;20688;-41
2022/12/06 09:52:29;;;;;;;6.80;6.20;;;10.80;1.00;;;;;;5093239;28;20965;-41
2022/12/06 09:55:14;;;;;;;7.63;6.93;;;10.60;1.00;;;;;;5078101;28;20411;-44
2022/12/06 09:57:50;;;;;;;8.50;7.70;;;10.30;1.00;;;;;;5096540;28;20712;-43
2022/12/06 10:00:21;;;;;;;6.90;6.30;;;10.20;1.00;;;;;;5097245;28;20437;-43
2022/12/06 10:03:05;;;;;;;7.07;6.47;;;10.00;1.00;;;;;;5098215;28;20537;-43
2022/12/06 10:05:51;;;;;;;7.70;6.90;;;9.80;1.00;;;;;;5096006;28;20433;-42
2022/12/06 10:08:43;;;;;;;8.37;7.40;;;9.70;1.00;;;;;;5096703;28;20445;-43
2022/12/06 10:11:49;;;;;;;7.10;6.50;;;9.60;1.00;;;;;;5093951;28;20476;-41
2022/12/06 10:14:32;;;;;;;9.13;7.60;;;9.50;1.00;;;;;;5092123;28;20502;-44
2022/12/06 10:17:40;;;;;;;9.33;8.50;;;9.30;1.00;;;;;;5076872;28;20484;-41
2022/12/06 10:20:34;;;;;;;7.60;6.87;;;9.30;1.00;;;;;;5078551;28;20415;-40
2022/12/06 10:23:12;;;;;;;9.93;8.17;;;9.10;1.00;;;;;;5095119;28;20426;-44
2022/12/06 10:25:57;;;;;;;8.90;8.10;;;9.00;1.00;;;;;;5095675;28;20418;-41
2022/12/06 10:28:34;;;;;;;9.87;8.87;;;9.00;1.00;;;;;;5093920;28;20852;-41
2022/12/06 10:31:26;;;;;;;10.27;9.27;;;8.90;1.00;;;;;;5094930;28;20497;-41
2022/12/06 10:33:57;;;;;;;10.43;9.33;;;8.80;1.00;;;;;;5076283;28;20483;-43
2022/12/06 10:37:02;;;;;;;11.30;10.20;;;8.60;1.00;;;;;;5094239;28;20429;-40
2022/12/06 10:39:45;;;;;;;13.07;11.87;;;8.50;1.00;;;;;;5038437;28;20533;-41
2022/12/06 10:42:27;;;;;;;15.83;14.20;;;8.30;1.00;;;;;;5092464;28;20426;-41
2022/12/06 10:44:56;;;;;;;14.90;13.30;;;8.30;1.00;;;;;;5074909;28;20423;-43
2022/12/06 10:47:36;;;;;;;13.40;12.10;;;8.20;25.80;;;;;;5073891;28;20523;-42
2022/12/06 10:50:03;;;;;;;13.90;12.60;;;8.10;84.00;;;;;;5072753;28;20429;-41
2022/12/06 10:52:40;;;;;;;12.50;11.40;;;8.10;99.90;;;;;;5074876;28;20437;-41
2022/12/06 10:55:09;;;;;;;14.20;12.40;;;8.00;99.90;;;;;;5094394;28;20422;-43
2022/12/06 10:57:52;;;;;;;12.57;11.27;;;8.00;99.90;;;;;;5077262;28;20734;-41
2022/12/06 11:00:34;;;;;;;12.83;11.53;;;8.00;99.90;;;;;;5095110;28;20425;-41
2022/12/06 11:03:18;;;;;;;14.67;13.17;;;8.00;99.90;;;;;;5075830;28;20529;-44
2022/12/06 11:05:49;;;;;;;13.33;11.97;;;8.00;99.90;;;;;;5092459;28;20457;-42
2022/12/06 11:08:19;;;;;;;13.37;12.00;;;8.10;99.90;;;;;;5074691;28;20425;-41
2022/12/06 11:10:45;;;;;;;13.33;12.00;;;8.10;99.90;;;;;;5098492;28;20469;-45
2022/12/06 11:13:18;;;;;;;13.30;11.93;;;8.10;99.90;;;;;;5076737;28;20450;-43
2022/12/06 11:16:08;;;;;;;13.03;11.73;;;8.10;99.90;;;;;;5113125;28;20433;-42
2022/12/06 11:18:35;;;;;;;13.57;12.13;;;8.20;99.90;;;;;;5115402;28;20841;-43
2022/12/06 11:21:17;;;;;;;12.53;11.30;;;8.30;99.90;;;;;;5099195;28;20413;-43
2022/12/06 11:23:55;;;;;;;11.97;10.77;;;8.30;99.90;;;;;;5099798;28;20421;-42
2022/12/06 11:26:33;;;;;;;13.37;12.00;;;8.30;99.90;;;;;;5117459;28;20449;-42
2022/12/06 11:29:04;;;;;;;12.60;11.30;;;8.40;99.90;;;;;;5118478;28;20456;-42
2022/12/06 11:31:43;;;;;;;11.63;10.47;;;8.30;99.90;;;;;;5100279;28;20691;-44
2022/12/06 11:34:21;;;;;;;12.63;11.30;;;8.30;46.80;;;;;;5116944;28;20397;-42
2022/12/06 11:36:49;;;;;;;13.83;11.93;;;8.30;1.00;;;;;;5119460;28;20453;-42
2022/12/06 11:39:15;;;;;;;12.43;11.13;;;8.20;1.00;;;;;;5100525;28;20405;-42
2022/12/06 11:41:43;;;;;;;11.67;10.47;;;8.20;1.00;;;;;;5117898;28;20486;-42
2022/12/06 11:44:14;;;;;;;13.00;11.50;;;8.10;7.00;;;;;;5100682;28;20720;-41
2022/12/06 11:46:40;;;;;;;11.80;10.60;;;8.10;49.70;;;;;;5099014;28;20461;-41
2022/12/06 11:49:28;;;;;;;13.80;12.33;;;8.00;99.90;;;;;;5118262;28;20500;-45
2022/12/06 11:51:54;;;;;;;12.63;10.97;;;8.00;99.90;;;;;;5118681;28;20172;-41
2022/12/06 11:54:25;;;;;;;14.10;12.70;;;8.00;99.90;;;;;;5100059;28;20405;-41
2022/12/06 11:56:51;;;;;;;16.90;15.00;;;8.10;99.90;;;;;;5102183;28;20422;-43
2022/12/06 11:59:29;;;;;;;17.00;13.90;;;8.00;99.90;;;;;;5102015;28;20558;-44
2022/12/06 12:01:59;;;;;;;15.43;13.83;;;8.00;99.90;;;;;;5118478;28;20850;-42
2022/12/06 12:04:43;;;;;;;15.37;12.47;;;8.00;99.90;;;;;;5117022;28;20524;-42
2022/12/06 12:07:09;;;;;;;16.53;13.80;;;8.00;99.90;;;;;;5117763;28;20747;-42
2022/12/06 12:09:53;;;;;;;14.37;12.67;;;7.90;99.90;;;;;;5116933;28;20416;-44
2022/12/06 12:15:20;;;;;;;15.10;13.60;;;7.80;99.90;;;;;;5116449;28;20684;-43
2022/12/06 12:17:47;;;;;;;15.13;13.63;;;7.70;99.90;;;;;;5113865;28;20463;-42
2022/12/06 12:20:25;;;;;;;16.20;14.50;;;7.60;1.00;;;;;;5112439;28;20472;-41
2022/12/06 12:23:18;;;;;;;16.20;14.60;;;7.60;1.00;;;;;;5115786;28;20456;-43
2022/12/06 12:26:01;;;;;;;22.80;19.90;;;7.60;1.00;;;;;;5102415;28;20600;-41
2022/12/06 12:28:28;;;;;;;22.63;20.30;;;7.60;1.00;;;;;;5115732;28;20490;-40
2022/12/06 12:31:17;;;;;;;19.40;17.30;;;7.50;1.00;;;;;;5110354;28;20448;-41
2022/12/06 12:33:43;;;;;;;15.87;14.27;;;7.50;1.00;;;;;;5110530;28;20421;-41
2022/12/06 12:36:13;;;;;;;13.10;11.80;;;7.40;1.00;;;;;;5111811;28;20455;-40
2022/12/06 12:38:50;;;;;;;13.50;12.10;;;7.40;1.00;;;;;;5112949;28;20184;-42
2022/12/06 12:41:22;;;;;;;14.73;12.57;;;7.40;8.00;;;;;;5113368;28;20445;-41
2022/12/06 12:44:00;;;;;;;13.10;10.90;;;7.40;39.90;;;;;;5110040;28;20541;-43
2022/12/06 12:46:27;;;;;;;12.37;11.10;;;7.30;76.10;;;;;;5109442;28;20557;-42
2022/12/06 12:48:54;;;;;;;12.40;11.10;;;7.30;99.90;;;;;;5108395;28;20406;-43
2022/12/06 12:51:36;;;;;;;11.87;10.60;;;7.30;99.90;;;;;;5114825;28;20417;-41
2022/12/06 12:54:37;;;;;;;11.70;10.43;;;7.30;99.90;;;;;;5114403;28;20809;-41
2022/12/06 12:57:11;;;;;;;12.73;11.43;;;7.20;99.90;;;;;;5090326;28;20503;-40
2022/12/06 12:59:39;;;;;;;11.03;9.73;;;7.20;99.90;;;;;;5109941;28;20489;-41
2022/12/06 13:02:18;;;;;;;12.90;10.37;;;7.10;99.90;;;;;;5110657;28;20443;-40
2022/12/06 13:04:56;;;;;;;11.17;10.03;;;7.10;1.00;;;;;;5113723;28;20512;-44
2022/12/06 13:07:28;;;;;;;10.20;8.80;;;7.10;1.00;;;;;;5111667;28;20538;-42
2022/12/06 13:10:05;;;;;;;9.23;8.13;;;7.00;1.00;;;;;;5111710;28;20674;-43
2022/12/06 13:12:47;;;;;;;10.17;9.10;;;7.00;1.00;;;;;;5111659;28;20897;-41
2022/12/06 13:15:17;;;;;;;10.87;9.70;;;7.00;34.20;;;;;;5114989;28;20508;-41
2022/12/06 13:17:46;;;;;;;12.07;10.87;;;7.00;99.20;;;;;;5095550;28;20432;-41
2022/12/06 13:20:25;;;;;;;13.30;11.13;;;6.90;99.90;;;;;;5078117;28;20432;-44
2022/12/06 13:22:54;;;;;;;9.13;8.20;;;6.90;99.90;;;;;;5113613;28;20765;-40
2022/12/06 13:25:20;;;;;;;10.10;8.70;;;6.80;99.90;;;;;;5112994;28;20425;-40
2022/12/06 13:27:51;;;;;;;9.10;7.03;;;6.80;99.90;;;;;;5114983;28;20724;-41
2022/12/06 13:30:22;;;;;;;8.00;6.10;;;6.80;99.90;;;;;;5096778;28;20841;-40
2022/12/06 13:32:55;;;;;;;7.07;5.67;;;6.70;99.90;;;;;;5097426;28;20433;-41
2022/12/06 13:35:52;;;;;;;8.27;7.37;;;6.70;1.00;;;;;;5080604;28;20473;-41
2022/12/06 13:38:18;;;;;;;7.57;6.10;;;6.70;1.00;;;;;;5114322;28;20720;-42
2022/12/06 13:40:48;;;;;;;6.93;5.60;;;6.70;1.00;;;;;;5114038;28;20419;-42